Meath Environmental Platform

Observations for Trim Market St

Time AQI Temp °C Hum % Pres Pa CO μg/m³ H₂S μg/m³ NO μg/m³ NO₂ μg/m³ O₃ μg/m³ SO₂ μg/m³ PM1 μg/m³ PM2.5 μg/m³ PM10 μg/m³
Wednesday 8 July 2026
02:37 1 17.8 75 39,196 0 0 0 2.43 9.99 0 0 0.9 2.75
02:34 1 17.8 75 39,531 0 0 0 3.24 10.22 0 0 0.91 2.75
02:32 1 17.8 75 39,836 0 0 0 2.94 10.73 0 0 1.87 3.94
02:31 1 17.9 75 39,997 0 0 0 2.82 10.89 0 0 1.39 3.35
02:22 1 18 75 40,459 0 0 0 2.81 9.87 0 0 1.39 3.34
02:21 1 18 75 40,528 0 0 0 3.01 10.89 0 0 1.39 3.34
02:20 1 18 75 40,618 0 0 0.11 3.02 10.48 0 0 1.88 3.93
02:19 1 18 75 40,738 0 0 0 3.02 10.69 0 0 0.92 2.73
02:18 1 18 75 40,896 0 0 0 2.82 10.42 0 0 0.92 3.93
02:17 1 18.1 75 41,052 0 0 0 3.2 10.03 0 0 0.92 2.73
02:16 1 18.1 75 41,241 0 0 0 3 9.65 0 0 1.4 3.33
02:15 1 18.1 74 41,336 0 0 0 3.21 10.47 0 0 1.4 3.33
02:14 1 18.1 74 41,462 0 0 0 2.51 10.44 0 0 0.92 2.73
02:13 1 18.1 74 41,556 0 0 0 3.81 11.06 0 0 1.4 3.33
02:12 1 18.1 74 41,749 0 0 0 3.71 10.44 0 0 0.92 2.73
02:11 1 18.1 74 41,861 0 0 0 2.82 9.94 0 0 1.41 3.33
02:10 1 18.2 74 41,875 0 0 0.4 3.69 9.74 0 0 1.41 4.53
02:09 1 18.2 74 41,804 0 0 0 2.5 15.63 0 0.71 1.41 3.32
02:04 1 18.2 74 41,408 0 0 0 3.09 9.36 0 0 0.93 2.73
02:01 1 18.3 74 41,026 0 0 0 3.65 8.68 0 0 0.92 2.73